sensor_id;sensor_type;location;lat;lon;timestamp;P1;durP1;ratioP1;P2;durP2;ratioP2
3726;SDS011;1879;45.876;12.300;2023-12-07T00:00:18;36.13;;;32.83;;
3726;SDS011;1879;45.876;12.300;2023-12-07T00:02:45;35.17;;;31.77;;
3726;SDS011;1879;45.876;12.300;2023-12-07T00:05:12;38.57;;;35.00;;
3726;SDS011;1879;45.876;12.300;2023-12-07T00:07:39;31.63;;;28.83;;
3726;SDS011;1879;45.876;12.300;2023-12-07T00:10:06;30.23;;;27.13;;
3726;SDS011;1879;45.876;12.300;2023-12-07T00:12:35;27.87;;;25.27;;
3726;SDS011;1879;45.876;12.300;2023-12-07T00:15:02;31.43;;;28.03;;
3726;SDS011;1879;45.876;12.300;2023-12-07T00:17:30;29.13;;;26.53;;
3726;SDS011;1879;45.876;12.300;2023-12-07T00:19:57;32.07;;;29.07;;
3726;SDS011;1879;45.876;12.300;2023-12-07T00:22:24;30.77;;;27.93;;
3726;SDS011;1879;45.876;12.300;2023-12-07T00:24:53;29.77;;;27.17;;
3726;SDS011;1879;45.876;12.300;2023-12-07T00:27:20;32.57;;;29.60;;
3726;SDS011;1879;45.876;12.300;2023-12-07T00:29:48;32.07;;;29.30;;
3726;SDS011;1879;45.876;12.300;2023-12-07T00:32:15;36.23;;;32.80;;
3726;SDS011;1879;45.876;12.300;2023-12-07T00:34:43;34.27;;;30.77;;
3726;SDS011;1879;45.876;12.300;2023-12-07T00:37:11;36.93;;;33.53;;
3726;SDS011;1879;45.876;12.300;2023-12-07T00:39:40;38.83;;;35.13;;
3726;SDS011;1879;45.876;12.300;2023-12-07T00:42:07;39.53;;;35.23;;
3726;SDS011;1879;45.876;12.300;2023-12-07T00:44:38;38.80;;;35.00;;
3726;SDS011;1879;45.876;12.300;2023-12-07T00:47:07;37.40;;;33.60;;
3726;SDS011;1879;45.876;12.300;2023-12-07T00:49:37;37.47;;;33.90;;
3726;SDS011;1879;45.876;12.300;2023-12-07T00:52:04;37.40;;;33.70;;
3726;SDS011;1879;45.876;12.300;2023-12-07T00:54:31;38.80;;;35.13;;
3726;SDS011;1879;45.876;12.300;2023-12-07T00:56:58;41.77;;;37.87;;
3726;SDS011;1879;45.876;12.300;2023-12-07T00:59:25;40.53;;;36.40;;
3726;SDS011;1879;45.876;12.300;2023-12-07T01:01:52;37.30;;;33.90;;
3726;SDS011;1879;45.876;12.300;2023-12-07T01:04:20;37.50;;;34.00;;
3726;SDS011;1879;45.876;12.300;2023-12-07T01:06:47;34.27;;;31.00;;
3726;SDS011;1879;45.876;12.300;2023-12-07T01:09:14;36.03;;;32.73;;
3726;SDS011;1879;45.876;12.300;2023-12-07T01:11:41;35.23;;;31.87;;
3726;SDS011;1879;45.876;12.300;2023-12-07T01:14:08;38.67;;;35.20;;
3726;SDS011;1879;45.876;12.300;2023-12-07T01:16:36;37.57;;;34.20;;
3726;SDS011;1879;45.876;12.300;2023-12-07T01:19:03;35.17;;;32.00;;
3726;SDS011;1879;45.876;12.300;2023-12-07T01:21:31;33.10;;;30.00;;
3726;SDS011;1879;45.876;12.300;2023-12-07T01:23:58;36.87;;;33.40;;
3726;SDS011;1879;45.876;12.300;2023-12-07T01:26:25;37.10;;;33.87;;
3726;SDS011;1879;45.876;12.300;2023-12-07T01:28:52;34.63;;;31.53;;
3726;SDS011;1879;45.876;12.300;2023-12-07T01:31:19;34.20;;;30.80;;
3726;SDS011;1879;45.876;12.300;2023-12-07T01:33:46;33.17;;;30.10;;
3726;SDS011;1879;45.876;12.300;2023-12-07T01:36:13;34.60;;;31.40;;
3726;SDS011;1879;45.876;12.300;2023-12-07T01:38:42;30.27;;;27.57;;
3726;SDS011;1879;45.876;12.300;2023-12-07T01:41:09;28.43;;;25.90;;
3726;SDS011;1879;45.876;12.300;2023-12-07T01:43:36;25.03;;;22.67;;
3726;SDS011;1879;45.876;12.300;2023-12-07T01:46:03;25.60;;;23.17;;
3726;SDS011;1879;45.876;12.300;2023-12-07T01:48:30;28.70;;;26.10;;
3726;SDS011;1879;45.876;12.300;2023-12-07T01:50:57;26.63;;;24.33;;
3726;SDS011;1879;45.876;12.300;2023-12-07T01:53:24;26.00;;;23.43;;
3726;SDS011;1879;45.876;12.300;2023-12-07T01:55:55;29.90;;;27.30;;
3726;SDS011;1879;45.876;12.300;2023-12-07T01:58:24;31.70;;;28.60;;
3726;SDS011;1879;45.876;12.300;2023-12-07T02:00:51;30.53;;;27.43;;
3726;SDS011;1879;45.876;12.300;2023-12-07T02:03:18;32.53;;;28.93;;
3726;SDS011;1879;45.876;12.300;2023-12-07T02:05:47;33.40;;;30.23;;
3726;SDS011;1879;45.876;12.300;2023-12-07T02:08:14;32.07;;;29.23;;
3726;SDS011;1879;45.876;12.300;2023-12-07T02:10:41;31.40;;;28.40;;
3726;SDS011;1879;45.876;12.300;2023-12-07T02:13:10;30.07;;;27.17;;
3726;SDS011;1879;45.876;12.300;2023-12-07T02:15:38;28.83;;;26.33;;
3726;SDS011;1879;45.876;12.300;2023-12-07T02:18:06;33.43;;;30.30;;
3726;SDS011;1879;45.876;12.300;2023-12-07T02:20:37;32.60;;;29.50;;
3726;SDS011;1879;45.876;12.300;2023-12-07T02:23:09;32.17;;;29.07;;
3726;SDS011;1879;45.876;12.300;2023-12-07T02:25:40;29.27;;;26.37;;
3726;SDS011;1879;45.876;12.300;2023-12-07T02:28:15;31.53;;;28.73;;
3726;SDS011;1879;45.876;12.300;2023-12-07T02:30:42;28.10;;;25.50;;
3726;SDS011;1879;45.876;12.300;2023-12-07T02:33:09;29.30;;;26.80;;
3726;SDS011;1879;45.876;12.300;2023-12-07T02:35:37;27.77;;;25.17;;
3726;SDS011;1879;45.876;12.300;2023-12-07T02:38:06;27.47;;;24.97;;
3726;SDS011;1879;45.876;12.300;2023-12-07T02:40:34;29.13;;;26.13;;
3726;SDS011;1879;45.876;12.300;2023-12-07T02:43:01;28.43;;;25.90;;
3726;SDS011;1879;45.876;12.300;2023-12-07T02:45:31;32.77;;;29.63;;
3726;SDS011;1879;45.876;12.300;2023-12-07T02:47:59;28.87;;;26.33;;
3726;SDS011;1879;45.876;12.300;2023-12-07T02:50:26;26.57;;;24.27;;
3726;SDS011;1879;45.876;12.300;2023-12-07T02:52:53;26.93;;;24.43;;
3726;SDS011;1879;45.876;12.300;2023-12-07T02:55:29;27.53;;;25.00;;
3726;SDS011;1879;45.876;12.300;2023-12-07T03:02:14;26.87;;;24.27;;
3726;SDS011;1879;45.876;12.300;2023-12-07T03:08:11;27.97;;;25.53;;
3726;SDS011;1879;45.876;12.300;2023-12-07T03:10:38;25.00;;;22.90;;
3726;SDS011;1879;45.876;12.300;2023-12-07T03:13:04;20.50;;;18.50;;
3726;SDS011;1879;45.876;12.300;2023-12-07T03:15:31;24.27;;;22.17;;
3726;SDS011;1879;45.876;12.300;2023-12-07T03:18:00;22.90;;;20.60;;
3726;SDS011;1879;45.876;12.300;2023-12-07T03:20:27;23.40;;;21.17;;
3726;SDS011;1879;45.876;12.300;2023-12-07T03:22:54;24.70;;;22.40;;
3726;SDS011;1879;45.876;12.300;2023-12-07T03:25:21;26.10;;;23.60;;
3726;SDS011;1879;45.876;12.300;2023-12-07T03:27:48;25.27;;;22.87;;
3726;SDS011;1879;45.876;12.300;2023-12-07T03:30:15;25.30;;;23.00;;
3726;SDS011;1879;45.876;12.300;2023-12-07T03:32:42;24.60;;;22.23;;
3726;SDS011;1879;45.876;12.300;2023-12-07T03:35:11;26.60;;;23.97;;
3726;SDS011;1879;45.876;12.300;2023-12-07T03:37:38;25.30;;;23.03;;
3726;SDS011;1879;45.876;12.300;2023-12-07T03:40:05;24.17;;;22.07;;
3726;SDS011;1879;45.876;12.300;2023-12-07T03:42:34;24.47;;;21.93;;
3726;SDS011;1879;45.876;12.300;2023-12-07T03:45:01;28.33;;;25.63;;
3726;SDS011;1879;45.876;12.300;2023-12-07T03:47:28;26.67;;;24.23;;
3726;SDS011;1879;45.876;12.300;2023-12-07T03:49:55;26.10;;;24.00;;
3726;SDS011;1879;45.876;12.300;2023-12-07T03:52:23;26.80;;;24.27;;
3726;SDS011;1879;45.876;12.300;2023-12-07T03:54:50;26.20;;;23.90;;
3726;SDS011;1879;45.876;12.300;2023-12-07T03:57:18;27.00;;;24.60;;
3726;SDS011;1879;45.876;12.300;2023-12-07T03:59:45;31.07;;;28.20;;
3726;SDS011;1879;45.876;12.300;2023-12-07T04:02:12;26.70;;;24.40;;
3726;SDS011;1879;45.876;12.300;2023-12-07T04:04:39;28.30;;;25.43;;
3726;SDS011;1879;45.876;12.300;2023-12-07T04:07:07;29.40;;;26.60;;
3726;SDS011;1879;45.876;12.300;2023-12-07T04:09:35;30.87;;;28.17;;
3726;SDS011;1879;45.876;12.300;2023-12-07T04:12:02;28.97;;;26.37;;
3726;SDS011;1879;45.876;12.300;2023-12-07T04:14:29;35.03;;;31.63;;
3726;SDS011;1879;45.876;12.300;2023-12-07T04:16:57;29.57;;;26.80;;
3726;SDS011;1879;45.876;12.300;2023-12-07T04:19:24;31.00;;;28.10;;
3726;SDS011;1879;45.876;12.300;2023-12-07T04:21:50;30.23;;;27.47;;
3726;SDS011;1879;45.876;12.300;2023-12-07T04:24:17;27.33;;;24.90;;
3726;SDS011;1879;45.876;12.300;2023-12-07T04:26:46;28.40;;;25.80;;
3726;SDS011;1879;45.876;12.300;2023-12-07T04:29:14;28.60;;;26.13;;
3726;SDS011;1879;45.876;12.300;2023-12-07T04:31:41;27.37;;;24.87;;
3726;SDS011;1879;45.876;12.300;2023-12-07T04:34:08;29.37;;;26.53;;
3726;SDS011;1879;45.876;12.300;2023-12-07T04:36:35;30.27;;;27.47;;
3726;SDS011;1879;45.876;12.300;2023-12-07T04:39:02;27.83;;;25.23;;
3726;SDS011;1879;45.876;12.300;2023-12-07T04:41:29;28.43;;;25.77;;
3726;SDS011;1879;45.876;12.300;2023-12-07T04:43:58;29.17;;;26.57;;
3726;SDS011;1879;45.876;12.300;2023-12-07T04:46:25;27.63;;;25.27;;
3726;SDS011;1879;45.876;12.300;2023-12-07T04:48:53;30.80;;;28.00;;
3726;SDS011;1879;45.876;12.300;2023-12-07T04:51:20;29.30;;;26.60;;
3726;SDS011;1879;45.876;12.300;2023-12-07T04:53:47;28.63;;;25.90;;
3726;SDS011;1879;45.876;12.300;2023-12-07T04:56:14;32.60;;;29.50;;
3726;SDS011;1879;45.876;12.300;2023-12-07T04:58:41;29.90;;;27.20;;
3726;SDS011;1879;45.876;12.300;2023-12-07T05:01:10;34.20;;;30.90;;
3726;SDS011;1879;45.876;12.300;2023-12-07T05:03:37;30.07;;;27.27;;
3726;SDS011;1879;45.876;12.300;2023-12-07T05:06:04;32.10;;;29.10;;
3726;SDS011;1879;45.876;12.300;2023-12-07T05:08:32;26.93;;;24.30;;
3726;SDS011;1879;45.876;12.300;2023-12-07T05:10:59;29.87;;;27.10;;
3726;SDS011;1879;45.876;12.300;2023-12-07T05:13:26;30.10;;;27.40;;
3726;SDS011;1879;45.876;12.300;2023-12-07T05:15:53;31.73;;;28.77;;
3726;SDS011;1879;45.876;12.300;2023-12-07T05:18:22;29.70;;;26.87;;
3726;SDS011;1879;45.876;12.300;2023-12-07T05:20:49;31.37;;;28.33;;
3726;SDS011;1879;45.876;12.300;2023-12-07T05:23:16;34.73;;;31.40;;
3726;SDS011;1879;45.876;12.300;2023-12-07T05:25:43;30.77;;;27.97;;
3726;SDS011;1879;45.876;12.300;2023-12-07T05:28:10;31.57;;;28.73;;
3726;SDS011;1879;45.876;12.300;2023-12-07T05:30:37;31.73;;;28.73;;
3726;SDS011;1879;45.876;12.300;2023-12-07T05:33:04;34.80;;;31.80;;
3726;SDS011;1879;45.876;12.300;2023-12-07T05:35:34;40.87;;;37.13;;
3726;SDS011;1879;45.876;12.300;2023-12-07T05:38:02;43.40;;;39.43;;
3726;SDS011;1879;45.876;12.300;2023-12-07T05:40:29;40.00;;;36.10;;
3726;SDS011;1879;45.876;12.300;2023-12-07T05:42:57;39.67;;;35.97;;
3726;SDS011;1879;45.876;12.300;2023-12-07T05:45:24;37.17;;;33.77;;
3726;SDS011;1879;45.876;12.300;2023-12-07T05:47:51;40.23;;;36.53;;
3726;SDS011;1879;45.876;12.300;2023-12-07T05:50:18;34.20;;;31.10;;
3726;SDS011;1879;45.876;12.300;2023-12-07T05:52:47;40.67;;;36.70;;
3726;SDS011;1879;45.876;12.300;2023-12-07T05:55:14;42.03;;;38.00;;
3726;SDS011;1879;45.876;12.300;2023-12-07T05:57:41;38.83;;;34.87;;
3726;SDS011;1879;45.876;12.300;2023-12-07T06:00:11;38.50;;;34.67;;
3726;SDS011;1879;45.876;12.300;2023-12-07T06:02:41;41.40;;;37.40;;
3726;SDS011;1879;45.876;12.300;2023-12-07T06:05:08;41.23;;;37.23;;
3726;SDS011;1879;45.876;12.300;2023-12-07T06:07:36;43.50;;;39.30;;
3726;SDS011;1879;45.876;12.300;2023-12-07T06:10:04;45.57;;;41.20;;
3726;SDS011;1879;45.876;12.300;2023-12-07T06:12:32;45.63;;;41.10;;
3726;SDS011;1879;45.876;12.300;2023-12-07T06:14:59;42.30;;;38.40;;
3726;SDS011;1879;45.876;12.300;2023-12-07T06:17:26;40.37;;;36.50;;
3726;SDS011;1879;45.876;12.300;2023-12-07T06:19:53;39.70;;;36.07;;
3726;SDS011;1879;45.876;12.300;2023-12-07T06:22:20;38.60;;;35.10;;
3726;SDS011;1879;45.876;12.300;2023-12-07T06:24:47;37.63;;;34.23;;
3726;SDS011;1879;45.876;12.300;2023-12-07T06:27:16;41.43;;;37.57;;
3726;SDS011;1879;45.876;12.300;2023-12-07T06:29:43;37.63;;;34.27;;
3726;SDS011;1879;45.876;12.300;2023-12-07T06:32:10;36.60;;;33.10;;
3726;SDS011;1879;45.876;12.300;2023-12-07T06:34:39;36.97;;;33.37;;
3726;SDS011;1879;45.876;12.300;2023-12-07T06:37:07;44.50;;;38.23;;
3726;SDS011;1879;45.876;12.300;2023-12-07T06:39:35;42.37;;;38.07;;
3726;SDS011;1879;45.876;12.300;2023-12-07T06:42:02;37.47;;;34.07;;
3726;SDS011;1879;45.876;12.300;2023-12-07T06:44:31;38.73;;;34.87;;
3726;SDS011;1879;45.876;12.300;2023-12-07T06:46:58;35.17;;;31.80;;
3726;SDS011;1879;45.876;12.300;2023-12-07T06:49:28;39.00;;;35.17;;
3726;SDS011;1879;45.876;12.300;2023-12-07T06:51:55;39.90;;;36.30;;
3726;SDS011;1879;45.876;12.300;2023-12-07T06:54:22;37.80;;;33.80;;
3726;SDS011;1879;45.876;12.300;2023-12-07T06:56:49;35.80;;;32.40;;
3726;SDS011;1879;45.876;12.300;2023-12-07T06:59:16;36.17;;;32.97;;
3726;SDS011;1879;45.876;12.300;2023-12-07T07:01:45;54.57;;;48.70;;
3726;SDS011;1879;45.876;12.300;2023-12-07T07:04:12;35.17;;;32.03;;
3726;SDS011;1879;45.876;12.300;2023-12-07T07:06:39;31.33;;;28.20;;
3726;SDS011;1879;45.876;12.300;2023-12-07T07:09:07;34.40;;;29.50;;
3726;SDS011;1879;45.876;12.300;2023-12-07T07:11:34;36.03;;;32.30;;
3726;SDS011;1879;45.876;12.300;2023-12-07T07:14:02;34.97;;;31.50;;
3726;SDS011;1879;45.876;12.300;2023-12-07T07:16:29;38.70;;;35.17;;
3726;SDS011;1879;45.876;12.300;2023-12-07T07:18:58;36.70;;;32.90;;
3726;SDS011;1879;45.876;12.300;2023-12-07T07:21:25;38.13;;;34.53;;
3726;SDS011;1879;45.876;12.300;2023-12-07T07:23:52;131.30;;;112.80;;
3726;SDS011;1879;45.876;12.300;2023-12-07T07:26:19;40.73;;;36.67;;
3726;SDS011;1879;45.876;12.300;2023-12-07T07:28:46;37.27;;;33.47;;
3726;SDS011;1879;45.876;12.300;2023-12-07T07:31:13;31.77;;;28.47;;
3726;SDS011;1879;45.876;12.300;2023-12-07T07:33:40;35.17;;;31.67;;
3726;SDS011;1879;45.876;12.300;2023-12-07T07:36:08;31.77;;;28.63;;
3726;SDS011;1879;45.876;12.300;2023-12-07T07:38:36;28.60;;;25.97;;
3726;SDS011;1879;45.876;12.300;2023-12-07T07:41:04;33.47;;;29.33;;
3726;SDS011;1879;45.876;12.300;2023-12-07T07:43:31;32.67;;;29.37;;
3726;SDS011;1879;45.876;12.300;2023-12-07T07:45:59;36.50;;;33.10;;
3726;SDS011;1879;45.876;12.300;2023-12-07T07:48:26;33.63;;;30.57;;
3726;SDS011;1879;45.876;12.300;2023-12-07T07:50:53;30.93;;;28.10;;
3726;SDS011;1879;45.876;12.300;2023-12-07T07:53:21;34.77;;;31.60;;
3726;SDS011;1879;45.876;12.300;2023-12-07T07:55:48;37.57;;;33.77;;
3726;SDS011;1879;45.876;12.300;2023-12-07T07:58:15;36.70;;;33.20;;
3726;SDS011;1879;45.876;12.300;2023-12-07T08:00:42;33.70;;;30.03;;
3726;SDS011;1879;45.876;12.300;2023-12-07T08:03:11;26.07;;;23.37;;
3726;SDS011;1879;45.876;12.300;2023-12-07T08:05:38;35.53;;;32.20;;
3726;SDS011;1879;45.876;12.300;2023-12-07T08:08:05;41.87;;;37.27;;
3726;SDS011;1879;45.876;12.300;2023-12-07T08:10:35;51.63;;;46.93;;
3726;SDS011;1879;45.876;12.300;2023-12-07T08:13:04;34.27;;;30.20;;
3726;SDS011;1879;45.876;12.300;2023-12-07T08:15:32;32.00;;;28.80;;
3726;SDS011;1879;45.876;12.300;2023-12-07T08:18:00;33.00;;;29.73;;
3726;SDS011;1879;45.876;12.300;2023-12-07T08:20:27;33.07;;;29.10;;
3726;SDS011;1879;45.876;12.300;2023-12-07T08:22:54;32.20;;;28.90;;
3726;SDS011;1879;45.876;12.300;2023-12-07T08:25:21;35.60;;;31.97;;
3726;SDS011;1879;45.876;12.300;2023-12-07T08:27:49;34.10;;;30.47;;
3726;SDS011;1879;45.876;12.300;2023-12-07T08:30:16;21.37;;;19.37;;
3726;SDS011;1879;45.876;12.300;2023-12-07T08:32:44;32.73;;;29.57;;
3726;SDS011;1879;45.876;12.300;2023-12-07T08:35:11;34.90;;;30.90;;
3726;SDS011;1879;45.876;12.300;2023-12-07T08:37:38;35.87;;;32.37;;
3726;SDS011;1879;45.876;12.300;2023-12-07T08:40:05;36.13;;;31.30;;
3726;SDS011;1879;45.876;12.300;2023-12-07T08:42:35;31.13;;;28.33;;
3726;SDS011;1879;45.876;12.300;2023-12-07T08:45:03;30.73;;;27.73;;
3726;SDS011;1879;45.876;12.300;2023-12-07T08:47:31;31.27;;;28.30;;
3726;SDS011;1879;45.876;12.300;2023-12-07T08:50:00;27.20;;;24.47;;
3726;SDS011;1879;45.876;12.300;2023-12-07T08:52:27;22.80;;;20.50;;
3726;SDS011;1879;45.876;12.300;2023-12-07T08:54:54;27.13;;;24.63;;
3726;SDS011;1879;45.876;12.300;2023-12-07T08:57:21;33.00;;;29.60;;
3726;SDS011;1879;45.876;12.300;2023-12-07T08:59:48;39.70;;;30.30;;
3726;SDS011;1879;45.876;12.300;2023-12-07T09:02:16;28.77;;;25.67;;
3726;SDS011;1879;45.876;12.300;2023-12-07T09:04:44;26.90;;;24.30;;
3726;SDS011;1879;45.876;12.300;2023-12-07T09:07:10;27.97;;;25.10;;
3726;SDS011;1879;45.876;12.300;2023-12-07T09:09:41;28.33;;;25.57;;
3726;SDS011;1879;45.876;12.300;2023-12-07T09:12:12;30.97;;;27.67;;
3726;SDS011;1879;45.876;12.300;2023-12-07T09:14:39;28.03;;;23.20;;
3726;SDS011;1879;45.876;12.300;2023-12-07T09:17:06;22.07;;;19.77;;
3726;SDS011;1879;45.876;12.300;2023-12-07T09:19:34;21.70;;;19.60;;
3726;SDS011;1879;45.876;12.300;2023-12-07T09:22:01;20.23;;;18.20;;
3726;SDS011;1879;45.876;12.300;2023-12-07T09:24:28;18.27;;;16.57;;
3726;SDS011;1879;45.876;12.300;2023-12-07T09:26:55;18.10;;;15.63;;
3726;SDS011;1879;45.876;12.300;2023-12-07T09:29:22;16.20;;;14.70;;
3726;SDS011;1879;45.876;12.300;2023-12-07T09:31:49;17.10;;;15.20;;
3726;SDS011;1879;45.876;12.300;2023-12-07T09:34:16;17.43;;;15.70;;
3726;SDS011;1879;45.876;12.300;2023-12-07T09:36:45;17.33;;;14.70;;
3726;SDS011;1879;45.876;12.300;2023-12-07T09:39:12;16.57;;;14.80;;
3726;SDS011;1879;45.876;12.300;2023-12-07T09:41:39;16.47;;;14.87;;
3726;SDS011;1879;45.876;12.300;2023-12-07T09:44:08;19.00;;;17.13;;
3726;SDS011;1879;45.876;12.300;2023-12-07T09:46:35;21.90;;;19.00;;
3726;SDS011;1879;45.876;12.300;2023-12-07T09:49:03;24.40;;;20.63;;
3726;SDS011;1879;45.876;12.300;2023-12-07T09:51:31;20.70;;;18.47;;
3726;SDS011;1879;45.876;12.300;2023-12-07T09:54:00;20.50;;;18.60;;
3726;SDS011;1879;45.876;12.300;2023-12-07T09:56:30;19.60;;;17.70;;
3726;SDS011;1879;45.876;12.300;2023-12-07T09:58:57;16.10;;;14.60;;
3726;SDS011;1879;45.876;12.300;2023-12-07T10:01:27;16.00;;;14.60;;
3726;SDS011;1879;45.876;12.300;2023-12-07T10:06:43;16.63;;;15.03;;
3726;SDS011;1879;45.876;12.300;2023-12-07T10:09:12;15.67;;;14.37;;
3726;SDS011;1879;45.876;12.300;2023-12-07T10:11:40;18.87;;;17.13;;
3726;SDS011;1879;45.876;12.300;2023-12-07T10:14:08;15.93;;;14.40;;
3726;SDS011;1879;45.876;12.300;2023-12-07T10:16:35;15.43;;;14.07;;
3726;SDS011;1879;45.876;12.300;2023-12-07T10:19:12;16.90;;;15.30;;
3726;SDS011;1879;45.876;12.300;2023-12-07T10:21:44;16.47;;;15.07;;
3726;SDS011;1879;45.876;12.300;2023-12-07T10:24:12;15.40;;;13.67;;
3726;SDS011;1879;45.876;12.300;2023-12-07T10:26:39;15.43;;;13.93;;
3726;SDS011;1879;45.876;12.300;2023-12-07T10:29:07;16.20;;;14.70;;
3726;SDS011;1879;45.876;12.300;2023-12-07T10:31:34;16.47;;;14.47;;
3726;SDS011;1879;45.876;12.300;2023-12-07T10:34:01;16.27;;;14.70;;
3726;SDS011;1879;45.876;12.300;2023-12-07T10:36:29;18.27;;;16.43;;
3726;SDS011;1879;45.876;12.300;2023-12-07T10:38:57;17.33;;;15.60;;
3726;SDS011;1879;45.876;12.300;2023-12-07T10:41:26;16.83;;;15.43;;
3726;SDS011;1879;45.876;12.300;2023-12-07T10:43:53;16.50;;;14.80;;
3726;SDS011;1879;45.876;12.300;2023-12-07T10:46:25;16.20;;;14.70;;
3726;SDS011;1879;45.876;12.300;2023-12-07T10:48:55;16.13;;;14.67;;
3726;SDS011;1879;45.876;12.300;2023-12-07T10:51:27;20.53;;;15.27;;
3726;SDS011;1879;45.876;12.300;2023-12-07T10:53:57;15.97;;;14.67;;
3726;SDS011;1879;45.876;12.300;2023-12-07T10:56:32;15.77;;;14.40;;
3726;SDS011;1879;45.876;12.300;2023-12-07T10:59:02;16.00;;;14.40;;
3726;SDS011;1879;45.876;12.300;2023-12-07T11:01:29;14.67;;;13.30;;
3726;SDS011;1879;45.876;12.300;2023-12-07T11:03:57;15.10;;;13.50;;
3726;SDS011;1879;45.876;12.300;2023-12-07T11:06:25;17.87;;;16.17;;
3726;SDS011;1879;45.876;12.300;2023-12-07T11:08:52;15.53;;;14.03;;
3726;SDS011;1879;45.876;12.300;2023-12-07T11:11:24;16.27;;;14.63;;
3726;SDS011;1879;45.876;12.300;2023-12-07T11:13:58;15.43;;;14.03;;
3726;SDS011;1879;45.876;12.300;2023-12-07T11:16:29;14.90;;;13.70;;
3726;SDS011;1879;45.876;12.300;2023-12-07T11:18:57;15.20;;;13.80;;
3726;SDS011;1879;45.876;12.300;2023-12-07T11:21:24;13.63;;;12.43;;
3726;SDS011;1879;45.876;12.300;2023-12-07T11:23:52;14.77;;;13.27;;
3726;SDS011;1879;45.876;12.300;2023-12-07T11:26:20;13.80;;;12.60;;
3726;SDS011;1879;45.876;12.300;2023-12-07T11:28:48;14.00;;;12.70;;
3726;SDS011;1879;45.876;12.300;2023-12-07T11:31:17;13.37;;;11.97;;
3726;SDS011;1879;45.876;12.300;2023-12-07T11:33:46;13.73;;;12.50;;
3726;SDS011;1879;45.876;12.300;2023-12-07T11:36:13;13.50;;;12.50;;
3726;SDS011;1879;45.876;12.300;2023-12-07T11:41:42;12.00;;;10.90;;
3726;SDS011;1879;45.876;12.300;2023-12-07T11:44:11;12.40;;;11.40;;
3726;SDS011;1879;45.876;12.300;2023-12-07T11:46:39;13.10;;;12.00;;
3726;SDS011;1879;45.876;12.300;2023-12-07T11:49:06;13.50;;;12.50;;
3726;SDS011;1879;45.876;12.300;2023-12-07T11:51:36;11.40;;;10.30;;
3726;SDS011;1879;45.876;12.300;2023-12-07T11:54:03;12.33;;;11.40;;
3726;SDS011;1879;45.876;12.300;2023-12-07T11:56:30;12.77;;;11.83;;
3726;SDS011;1879;45.876;12.300;2023-12-07T11:58:58;13.47;;;12.43;;
3726;SDS011;1879;45.876;12.300;2023-12-07T12:01:25;13.83;;;12.70;;
3726;SDS011;1879;45.876;12.300;2023-12-07T12:03:56;13.70;;;12.50;;
3726;SDS011;1879;45.876;12.300;2023-12-07T12:06:23;13.93;;;12.90;;
3726;SDS011;1879;45.876;12.300;2023-12-07T12:08:51;14.30;;;13.30;;
3726;SDS011;1879;45.876;12.300;2023-12-07T12:11:18;13.73;;;12.83;;
3726;SDS011;1879;45.876;12.300;2023-12-07T12:13:45;13.80;;;12.80;;
3726;SDS011;1879;45.876;12.300;2023-12-07T12:16:14;14.37;;;13.27;;
3726;SDS011;1879;45.876;12.300;2023-12-07T12:18:41;13.97;;;12.97;;
3726;SDS011;1879;45.876;12.300;2023-12-07T12:21:10;13.80;;;12.60;;
3726;SDS011;1879;45.876;12.300;2023-12-07T12:23:37;13.93;;;12.83;;
3726;SDS011;1879;45.876;12.300;2023-12-07T12:26:05;13.77;;;12.70;;
3726;SDS011;1879;45.876;12.300;2023-12-07T12:28:33;15.63;;;14.50;;
3726;SDS011;1879;45.876;12.300;2023-12-07T12:31:06;14.67;;;13.47;;
3726;SDS011;1879;45.876;12.300;2023-12-07T12:33:33;16.00;;;14.70;;
3726;SDS011;1879;45.876;12.300;2023-12-07T12:36:03;16.67;;;15.47;;
3726;SDS011;1879;45.876;12.300;2023-12-07T12:38:34;16.97;;;15.67;;
3726;SDS011;1879;45.876;12.300;2023-12-07T12:41:01;16.83;;;15.53;;
3726;SDS011;1879;45.876;12.300;2023-12-07T12:43:29;16.20;;;15.00;;
3726;SDS011;1879;45.876;12.300;2023-12-07T12:45:57;15.40;;;14.20;;
3726;SDS011;1879;45.876;12.300;2023-12-07T12:48:25;15.47;;;14.17;;
3726;SDS011;1879;45.876;12.300;2023-12-07T12:50:51;15.47;;;14.17;;
3726;SDS011;1879;45.876;12.300;2023-12-07T12:53:21;16.77;;;15.47;;
3726;SDS011;1879;45.876;12.300;2023-12-07T12:55:49;16.53;;;15.23;;
3726;SDS011;1879;45.876;12.300;2023-12-07T12:58:16;16.67;;;15.27;;
3726;SDS011;1879;45.876;12.300;2023-12-07T13:00:45;16.07;;;14.70;;
3726;SDS011;1879;45.876;12.300;2023-12-07T13:03:13;15.67;;;14.47;;
3726;SDS011;1879;45.876;12.300;2023-12-07T13:05:40;16.33;;;14.77;;
3726;SDS011;1879;45.876;12.300;2023-12-07T13:08:07;16.63;;;15.27;;
3726;SDS011;1879;45.876;12.300;2023-12-07T13:10:35;17.97;;;16.37;;
3726;SDS011;1879;45.876;12.300;2023-12-07T13:13:03;16.23;;;14.80;;
3726;SDS011;1879;45.876;12.300;2023-12-07T13:15:32;17.20;;;15.70;;
3726;SDS011;1879;45.876;12.300;2023-12-07T13:17:59;15.87;;;14.60;;
3726;SDS011;1879;45.876;12.300;2023-12-07T13:20:26;17.17;;;15.60;;
3726;SDS011;1879;45.876;12.300;2023-12-07T13:22:53;17.33;;;16.00;;
3726;SDS011;1879;45.876;12.300;2023-12-07T13:25:21;17.50;;;15.90;;
3726;SDS011;1879;45.876;12.300;2023-12-07T13:27:48;17.87;;;16.47;;
3726;SDS011;1879;45.876;12.300;2023-12-07T13:30:16;17.60;;;16.10;;
3726;SDS011;1879;45.876;12.300;2023-12-07T13:32:43;17.23;;;15.60;;
3726;SDS011;1879;45.876;12.300;2023-12-07T13:35:10;16.20;;;14.70;;
3726;SDS011;1879;45.876;12.300;2023-12-07T13:37:38;17.27;;;15.87;;
3726;SDS011;1879;45.876;12.300;2023-12-07T13:40:05;18.13;;;16.37;;
3726;SDS011;1879;45.876;12.300;2023-12-07T13:42:35;17.23;;;15.90;;
3726;SDS011;1879;45.876;12.300;2023-12-07T13:45:03;18.30;;;16.60;;
3726;SDS011;1879;45.876;12.300;2023-12-07T13:47:33;18.70;;;17.00;;
3726;SDS011;1879;45.876;12.300;2023-12-07T13:50:02;17.97;;;16.47;;
3726;SDS011;1879;45.876;12.300;2023-12-07T13:52:30;17.23;;;15.73;;
3726;SDS011;1879;45.876;12.300;2023-12-07T13:54:58;18.60;;;16.80;;
3726;SDS011;1879;45.876;12.300;2023-12-07T13:57:27;16.93;;;15.33;;
3726;SDS011;1879;45.876;12.300;2023-12-07T13:59:54;16.33;;;14.80;;
3726;SDS011;1879;45.876;12.300;2023-12-07T14:02:21;16.63;;;15.43;;
3726;SDS011;1879;45.876;12.300;2023-12-07T14:04:50;17.77;;;16.33;;
3726;SDS011;1879;45.876;12.300;2023-12-07T14:07:17;17.93;;;16.40;;
3726;SDS011;1879;45.876;12.300;2023-12-07T14:09:46;19.50;;;17.73;;
3726;SDS011;1879;45.876;12.300;2023-12-07T14:12:14;17.00;;;15.67;;
3726;SDS011;1879;45.876;12.300;2023-12-07T14:14:41;17.90;;;16.50;;
3726;SDS011;1879;45.876;12.300;2023-12-07T14:17:10;18.40;;;16.70;;
3726;SDS011;1879;45.876;12.300;2023-12-07T14:19:37;19.43;;;17.77;;
3726;SDS011;1879;45.876;12.300;2023-12-07T14:22:05;18.00;;;16.53;;
3726;SDS011;1879;45.876;12.300;2023-12-07T14:24:34;17.47;;;16.17;;
3726;SDS011;1879;45.876;12.300;2023-12-07T14:27:03;19.20;;;17.40;;
3726;SDS011;1879;45.876;12.300;2023-12-07T14:29:31;19.07;;;17.37;;
3726;SDS011;1879;45.876;12.300;2023-12-07T14:31:59;19.27;;;17.60;;
3726;SDS011;1879;45.876;12.300;2023-12-07T14:34:26;18.70;;;17.03;;
3726;SDS011;1879;45.876;12.300;2023-12-07T14:36:54;17.60;;;16.27;;
3726;SDS011;1879;45.876;12.300;2023-12-07T14:39:22;17.43;;;16.03;;
3726;SDS011;1879;45.876;12.300;2023-12-07T14:41:49;19.10;;;17.50;;
3726;SDS011;1879;45.876;12.300;2023-12-07T14:44:17;19.60;;;17.97;;
3726;SDS011;1879;45.876;12.300;2023-12-07T14:46:44;20.63;;;18.50;;
3726;SDS011;1879;45.876;12.300;2023-12-07T14:49:13;20.80;;;18.80;;